sensor_id;sensor_type;location;lat;lon;timestamp;P1;durP1;ratioP1;P2;durP2;ratioP2
57832;SDS011;43667;53.036;6.740;2023-03-26T00:00:44;27.75;;;5.22;;
57832;SDS011;43667;53.036;6.740;2023-03-26T00:03:12;24.50;;;3.33;;
57832;SDS011;43667;53.036;6.740;2023-03-26T00:05:40;17.00;;;3.08;;
57832;SDS011;43667;53.036;6.740;2023-03-26T00:08:06;16.33;;;2.67;;
57832;SDS011;43667;53.036;6.740;2023-03-26T00:10:33;25.17;;;3.53;;
57832;SDS011;43667;53.036;6.740;2023-03-26T00:13:01;24.52;;;3.63;;
57832;SDS011;43667;53.036;6.740;2023-03-26T00:15:27;18.60;;;3.45;;
57832;SDS011;43667;53.036;6.740;2023-03-26T00:17:52;20.02;;;2.80;;
57832;SDS011;43667;53.036;6.740;2023-03-26T00:20:18;22.95;;;3.50;;
57832;SDS011;43667;53.036;6.740;2023-03-26T00:22:44;23.23;;;4.60;;
57832;SDS011;43667;53.036;6.740;2023-03-26T00:25:10;19.13;;;3.20;;
57832;SDS011;43667;53.036;6.740;2023-03-26T00:27:35;22.08;;;3.53;;
57832;SDS011;43667;53.036;6.740;2023-03-26T00:30:02;18.92;;;3.28;;
57832;SDS011;43667;53.036;6.740;2023-03-26T00:32:29;16.00;;;2.53;;
57832;SDS011;43667;53.036;6.740;2023-03-26T00:34:55;18.98;;;2.58;;
57832;SDS011;43667;53.036;6.740;2023-03-26T00:37:22;19.15;;;3.05;;
57832;SDS011;43667;53.036;6.740;2023-03-26T00:39:51;16.23;;;3.17;;
57832;SDS011;43667;53.036;6.740;2023-03-26T00:42:17;23.90;;;3.65;;
57832;SDS011;43667;53.036;6.740;2023-03-26T00:44:43;17.48;;;2.70;;
57832;SDS011;43667;53.036;6.740;2023-03-26T00:47:09;22.15;;;3.40;;
57832;SDS011;43667;53.036;6.740;2023-03-26T00:49:34;18.55;;;4.15;;
57832;SDS011;43667;53.036;6.740;2023-03-26T00:52:00;24.55;;;3.45;;
57832;SDS011;43667;53.036;6.740;2023-03-26T00:54:27;15.25;;;3.10;;
57832;SDS011;43667;53.036;6.740;2023-03-26T00:56:53;19.92;;;3.78;;
57832;SDS011;43667;53.036;6.740;2023-03-26T00:59:20;23.45;;;2.65;;
57832;SDS011;43667;53.036;6.740;2023-03-26T01:01:46;19.75;;;3.20;;
57832;SDS011;43667;53.036;6.740;2023-03-26T01:07:28;17.92;;;2.85;;
57832;SDS011;43667;53.036;6.740;2023-03-26T01:09:55;19.25;;;2.90;;
57832;SDS011;43667;53.036;6.740;2023-03-26T01:12:23;16.63;;;2.72;;
57832;SDS011;43667;53.036;6.740;2023-03-26T01:14:52;15.52;;;2.75;;
57832;SDS011;43667;53.036;6.740;2023-03-26T01:17:20;24.40;;;3.50;;
57832;SDS011;43667;53.036;6.740;2023-03-26T01:20:05;21.25;;;3.70;;
57832;SDS011;43667;53.036;6.740;2023-03-26T01:22:37;20.85;;;3.72;;
57832;SDS011;43667;53.036;6.740;2023-03-26T01:25:13;18.38;;;3.15;;
57832;SDS011;43667;53.036;6.740;2023-03-26T01:27:52;15.95;;;2.88;;
57832;SDS011;43667;53.036;6.740;2023-03-26T01:30:21;18.73;;;3.65;;
57832;SDS011;43667;53.036;6.740;2023-03-26T01:33:11;13.60;;;2.50;;
57832;SDS011;43667;53.036;6.740;2023-03-26T01:42:03;16.48;;;3.08;;
57832;SDS011;43667;53.036;6.740;2023-03-26T01:44:35;19.83;;;3.10;;
57832;SDS011;43667;53.036;6.740;2023-03-26T01:47:05;12.88;;;3.08;;
57832;SDS011;43667;53.036;6.740;2023-03-26T01:49:32;17.38;;;3.17;;
57832;SDS011;43667;53.036;6.740;2023-03-26T01:51:58;17.20;;;3.30;;
57832;SDS011;43667;53.036;6.740;2023-03-26T01:54:25;16.58;;;2.58;;
57832;SDS011;43667;53.036;6.740;2023-03-26T02:02:51;18.35;;;3.20;;
57832;SDS011;43667;53.036;6.740;2023-03-26T02:10:37;16.02;;;2.67;;
57832;SDS011;43667;53.036;6.740;2023-03-26T02:13:06;15.63;;;2.67;;
57832;SDS011;43667;53.036;6.740;2023-03-26T02:15:32;17.38;;;2.90;;
57832;SDS011;43667;53.036;6.740;2023-03-26T02:17:58;18.00;;;2.78;;
57832;SDS011;43667;53.036;6.740;2023-03-26T02:20:25;24.63;;;3.40;;
57832;SDS011;43667;53.036;6.740;2023-03-26T02:22:54;19.90;;;3.20;;
57832;SDS011;43667;53.036;6.740;2023-03-26T02:25:20;19.85;;;3.42;;
57832;SDS011;43667;53.036;6.740;2023-03-26T02:27:46;19.75;;;3.58;;
57832;SDS011;43667;53.036;6.740;2023-03-26T02:30:15;20.92;;;3.00;;
57832;SDS011;43667;53.036;6.740;2023-03-26T02:32:43;17.27;;;2.83;;
57832;SDS011;43667;53.036;6.740;2023-03-26T02:35:09;20.48;;;3.35;;
57832;SDS011;43667;53.036;6.740;2023-03-26T02:37:35;23.88;;;3.58;;
57832;SDS011;43667;53.036;6.740;2023-03-26T02:40:02;27.08;;;4.22;;
57832;SDS011;43667;53.036;6.740;2023-03-26T02:42:30;19.50;;;3.00;;
57832;SDS011;43667;53.036;6.740;2023-03-26T02:44:55;23.98;;;3.30;;
57832;SDS011;43667;53.036;6.740;2023-03-26T02:47:21;19.15;;;3.25;;
57832;SDS011;43667;53.036;6.740;2023-03-26T02:49:46;25.27;;;3.65;;
57832;SDS011;43667;53.036;6.740;2023-03-26T02:52:12;18.77;;;3.67;;
57832;SDS011;43667;53.036;6.740;2023-03-26T02:54:41;20.38;;;2.80;;
57832;SDS011;43667;53.036;6.740;2023-03-26T02:57:06;20.08;;;3.38;;
57832;SDS011;43667;53.036;6.740;2023-03-26T02:59:32;18.60;;;3.10;;
57832;SDS011;43667;53.036;6.740;2023-03-26T03:01:57;21.95;;;2.88;;
57832;SDS011;43667;53.036;6.740;2023-03-26T03:04:23;19.13;;;3.63;;
57832;SDS011;43667;53.036;6.740;2023-03-26T03:06:48;29.52;;;3.65;;
57832;SDS011;43667;53.036;6.740;2023-03-26T03:09:17;18.83;;;3.10;;
57832;SDS011;43667;53.036;6.740;2023-03-26T03:11:43;16.70;;;3.33;;
57832;SDS011;43667;53.036;6.740;2023-03-26T03:14:08;19.42;;;3.53;;
57832;SDS011;43667;53.036;6.740;2023-03-26T03:16:34;22.88;;;3.78;;
57832;SDS011;43667;53.036;6.740;2023-03-26T03:18:59;21.65;;;3.97;;
57832;SDS011;43667;53.036;6.740;2023-03-26T03:21:26;17.90;;;2.92;;
57832;SDS011;43667;53.036;6.740;2023-03-26T03:23:53;21.98;;;3.25;;
57832;SDS011;43667;53.036;6.740;2023-03-26T03:26:20;22.02;;;3.30;;
57832;SDS011;43667;53.036;6.740;2023-03-26T03:28:50;15.60;;;3.70;;
57832;SDS011;43667;53.036;6.740;2023-03-26T03:31:16;18.08;;;2.78;;
57832;SDS011;43667;53.036;6.740;2023-03-26T03:33:42;16.35;;;3.28;;
57832;SDS011;43667;53.036;6.740;2023-03-26T03:36:10;26.15;;;3.45;;
57832;SDS011;43667;53.036;6.740;2023-03-26T03:38:37;16.58;;;3.42;;
57832;SDS011;43667;53.036;6.740;2023-03-26T03:41:04;21.30;;;3.10;;
57832;SDS011;43667;53.036;6.740;2023-03-26T03:43:31;16.55;;;3.03;;
57832;SDS011;43667;53.036;6.740;2023-03-26T03:45:58;19.02;;;3.30;;
57832;SDS011;43667;53.036;6.740;2023-03-26T03:48:24;26.10;;;4.30;;
57832;SDS011;43667;53.036;6.740;2023-03-26T03:50:50;23.42;;;3.97;;
57832;SDS011;43667;53.036;6.740;2023-03-26T03:53:17;22.10;;;3.03;;
57832;SDS011;43667;53.036;6.740;2023-03-26T03:55:43;19.10;;;3.22;;
57832;SDS011;43667;53.036;6.740;2023-03-26T03:58:16;20.65;;;3.42;;
57832;SDS011;43667;53.036;6.740;2023-03-26T04:00:46;21.58;;;4.07;;
57832;SDS011;43667;53.036;6.740;2023-03-26T04:03:12;23.60;;;3.53;;
57832;SDS011;43667;53.036;6.740;2023-03-26T04:05:38;22.90;;;3.40;;
57832;SDS011;43667;53.036;6.740;2023-03-26T04:08:04;15.40;;;3.08;;
57832;SDS011;43667;53.036;6.740;2023-03-26T04:10:30;17.77;;;3.50;;
57832;SDS011;43667;53.036;6.740;2023-03-26T04:12:56;19.30;;;3.38;;
57832;SDS011;43667;53.036;6.740;2023-03-26T04:15:22;24.02;;;4.03;;
57832;SDS011;43667;53.036;6.740;2023-03-26T04:17:47;17.40;;;3.00;;
57832;SDS011;43667;53.036;6.740;2023-03-26T04:20:13;21.60;;;3.55;;
57832;SDS011;43667;53.036;6.740;2023-03-26T04:22:40;22.17;;;4.00;;
57832;SDS011;43667;53.036;6.740;2023-03-26T04:25:08;18.67;;;3.30;;
57832;SDS011;43667;53.036;6.740;2023-03-26T04:27:35;21.35;;;3.72;;
57832;SDS011;43667;53.036;6.740;2023-03-26T04:30:02;22.75;;;3.67;;
57832;SDS011;43667;53.036;6.740;2023-03-26T04:32:30;20.25;;;3.08;;
57832;SDS011;43667;53.036;6.740;2023-03-26T04:34:59;18.27;;;3.03;;
57832;SDS011;43667;53.036;6.740;2023-03-26T04:37:32;14.27;;;2.70;;
57832;SDS011;43667;53.036;6.740;2023-03-26T04:40:04;19.52;;;2.95;;
57832;SDS011;43667;53.036;6.740;2023-03-26T04:42:36;13.70;;;2.60;;
57832;SDS011;43667;53.036;6.740;2023-03-26T04:45:06;21.45;;;3.15;;
57832;SDS011;43667;53.036;6.740;2023-03-26T04:47:32;20.67;;;3.22;;
57832;SDS011;43667;53.036;6.740;2023-03-26T04:50:01;28.33;;;3.47;;
57832;SDS011;43667;53.036;6.740;2023-03-26T04:52:28;20.60;;;3.05;;
57832;SDS011;43667;53.036;6.740;2023-03-26T04:54:53;25.27;;;4.60;;
57832;SDS011;43667;53.036;6.740;2023-03-26T04:57:31;22.33;;;3.38;;
57832;SDS011;43667;53.036;6.740;2023-03-26T04:59:59;28.58;;;4.40;;
57832;SDS011;43667;53.036;6.740;2023-03-26T05:02:27;26.05;;;3.53;;
57832;SDS011;43667;53.036;6.740;2023-03-26T05:04:53;25.50;;;3.45;;
57832;SDS011;43667;53.036;6.740;2023-03-26T05:07:21;21.88;;;3.40;;
57832;SDS011;43667;53.036;6.740;2023-03-26T05:09:48;23.10;;;3.20;;
57832;SDS011;43667;53.036;6.740;2023-03-26T05:12:14;25.55;;;3.88;;
57832;SDS011;43667;53.036;6.740;2023-03-26T05:14:40;18.70;;;3.13;;
57832;SDS011;43667;53.036;6.740;2023-03-26T05:17:06;23.52;;;3.20;;
57832;SDS011;43667;53.036;6.740;2023-03-26T05:19:35;29.77;;;3.90;;
57832;SDS011;43667;53.036;6.740;2023-03-26T05:22:01;19.67;;;2.85;;
57832;SDS011;43667;53.036;6.740;2023-03-26T05:24:27;25.00;;;3.28;;
57832;SDS011;43667;53.036;6.740;2023-03-26T05:26:53;22.13;;;3.38;;
57832;SDS011;43667;53.036;6.740;2023-03-26T05:29:19;27.90;;;5.05;;
57832;SDS011;43667;53.036;6.740;2023-03-26T05:31:46;23.15;;;3.72;;
57832;SDS011;43667;53.036;6.740;2023-03-26T05:34:12;23.00;;;3.47;;
57832;SDS011;43667;53.036;6.740;2023-03-26T05:36:38;22.48;;;3.40;;
57832;SDS011;43667;53.036;6.740;2023-03-26T05:39:06;25.60;;;3.47;;
57832;SDS011;43667;53.036;6.740;2023-03-26T05:41:32;21.50;;;3.53;;
57832;SDS011;43667;53.036;6.740;2023-03-26T05:43:59;19.60;;;3.53;;
57832;SDS011;43667;53.036;6.740;2023-03-26T05:46:24;31.45;;;3.70;;
57832;SDS011;43667;53.036;6.740;2023-03-26T05:48:51;34.53;;;4.72;;
57832;SDS011;43667;53.036;6.740;2023-03-26T05:51:18;22.35;;;3.22;;
57832;SDS011;43667;53.036;6.740;2023-03-26T05:53:44;22.20;;;2.92;;
57832;SDS011;43667;53.036;6.740;2023-03-26T05:56:10;21.10;;;3.47;;
57832;SDS011;43667;53.036;6.740;2023-03-26T05:58:36;24.80;;;3.17;;
57832;SDS011;43667;53.036;6.740;2023-03-26T06:01:03;21.13;;;2.97;;
57832;SDS011;43667;53.036;6.740;2023-03-26T06:03:32;27.02;;;4.10;;
57832;SDS011;43667;53.036;6.740;2023-03-26T06:05:59;23.83;;;3.78;;
57832;SDS011;43667;53.036;6.740;2023-03-26T06:08:25;27.63;;;3.80;;
57832;SDS011;43667;53.036;6.740;2023-03-26T06:10:56;25.08;;;3.53;;
57832;SDS011;43667;53.036;6.740;2023-03-26T06:13:23;23.23;;;3.08;;
57832;SDS011;43667;53.036;6.740;2023-03-26T06:15:48;24.08;;;2.85;;
57832;SDS011;43667;53.036;6.740;2023-03-26T06:18:14;23.83;;;3.35;;
57832;SDS011;43667;53.036;6.740;2023-03-26T06:20:40;19.15;;;3.25;;
57832;SDS011;43667;53.036;6.740;2023-03-26T06:23:06;20.70;;;3.55;;
57832;SDS011;43667;53.036;6.740;2023-03-26T06:25:31;19.90;;;3.38;;
57832;SDS011;43667;53.036;6.740;2023-03-26T06:27:58;23.55;;;3.95;;
57832;SDS011;43667;53.036;6.740;2023-03-26T06:30:24;26.48;;;4.65;;
57832;SDS011;43667;53.036;6.740;2023-03-26T06:32:49;24.83;;;3.08;;
57832;SDS011;43667;53.036;6.740;2023-03-26T06:35:15;17.60;;;3.42;;
57832;SDS011;43667;53.036;6.740;2023-03-26T06:37:41;21.48;;;3.30;;
57832;SDS011;43667;53.036;6.740;2023-03-26T06:40:07;16.67;;;2.58;;
57832;SDS011;43667;53.036;6.740;2023-03-26T06:42:32;23.15;;;3.25;;
57832;SDS011;43667;53.036;6.740;2023-03-26T06:44:58;36.30;;;6.35;;
57832;SDS011;43667;53.036;6.740;2023-03-26T06:47:24;27.13;;;3.58;;
57832;SDS011;43667;53.036;6.740;2023-03-26T06:49:49;24.27;;;3.42;;
57832;SDS011;43667;53.036;6.740;2023-03-26T06:52:15;25.27;;;3.17;;
57832;SDS011;43667;53.036;6.740;2023-03-26T06:54:41;21.13;;;3.38;;
57832;SDS011;43667;53.036;6.740;2023-03-26T06:57:06;21.67;;;3.40;;
57832;SDS011;43667;53.036;6.740;2023-03-26T06:59:32;22.38;;;3.38;;
57832;SDS011;43667;53.036;6.740;2023-03-26T07:01:57;18.90;;;3.53;;
57832;SDS011;43667;53.036;6.740;2023-03-26T07:04:23;21.45;;;3.65;;
57832;SDS011;43667;53.036;6.740;2023-03-26T07:06:48;22.48;;;3.30;;
57832;SDS011;43667;53.036;6.740;2023-03-26T07:09:14;21.83;;;3.17;;
57832;SDS011;43667;53.036;6.740;2023-03-26T07:11:40;19.98;;;3.35;;
57832;SDS011;43667;53.036;6.740;2023-03-26T07:14:05;14.80;;;2.28;;
57832;SDS011;43667;53.036;6.740;2023-03-26T07:16:31;21.00;;;3.10;;
57832;SDS011;43667;53.036;6.740;2023-03-26T07:18:56;24.80;;;3.20;;
57832;SDS011;43667;53.036;6.740;2023-03-26T07:21:22;16.52;;;2.83;;
57832;SDS011;43667;53.036;6.740;2023-03-26T07:23:48;18.15;;;3.15;;
57832;SDS011;43667;53.036;6.740;2023-03-26T07:28:58;18.30;;;2.95;;
57832;SDS011;43667;53.036;6.740;2023-03-26T07:31:36;20.52;;;3.72;;
57832;SDS011;43667;53.036;6.740;2023-03-26T07:46:03;19.35;;;2.67;;
57832;SDS011;43667;53.036;6.740;2023-03-26T07:48:39;24.88;;;4.25;;
57832;SDS011;43667;53.036;6.740;2023-03-26T07:51:06;17.83;;;2.95;;
57832;SDS011;43667;53.036;6.740;2023-03-26T07:53:33;15.70;;;2.63;;
57832;SDS011;43667;53.036;6.740;2023-03-26T07:56:00;16.95;;;2.95;;
57832;SDS011;43667;53.036;6.740;2023-03-26T08:01:42;20.50;;;2.95;;
57832;SDS011;43667;53.036;6.740;2023-03-26T08:07:24;15.25;;;2.45;;
57832;SDS011;43667;53.036;6.740;2023-03-26T08:12:23;15.98;;;2.72;;
57832;SDS011;43667;53.036;6.740;2023-03-26T08:18:03;15.48;;;2.67;;
57832;SDS011;43667;53.036;6.740;2023-03-26T08:20:49;17.42;;;3.22;;
57832;SDS011;43667;53.036;6.740;2023-03-26T08:23:25;15.95;;;2.50;;
57832;SDS011;43667;53.036;6.740;2023-03-26T08:26:03;13.40;;;2.30;;
57832;SDS011;43667;53.036;6.740;2023-03-26T08:31:10;15.25;;;2.67;;
57832;SDS011;43667;53.036;6.740;2023-03-26T08:33:37;14.77;;;2.45;;
57832;SDS011;43667;53.036;6.740;2023-03-26T08:36:05;19.70;;;3.38;;
57832;SDS011;43667;53.036;6.740;2023-03-26T08:38:32;14.00;;;2.80;;
57832;SDS011;43667;53.036;6.740;2023-03-26T09:11:31;17.75;;;2.72;;
57832;SDS011;43667;53.036;6.740;2023-03-26T09:20:34;20.23;;;3.15;;
57832;SDS011;43667;53.036;6.740;2023-03-26T09:24:03;15.60;;;2.30;;
57832;SDS011;43667;53.036;6.740;2023-03-26T09:29:07;11.68;;;1.98;;
57832;SDS011;43667;53.036;6.740;2023-03-26T09:37:10;12.82;;;2.28;;
57832;SDS011;43667;53.036;6.740;2023-03-26T09:39:55;13.13;;;2.47;;
57832;SDS011;43667;53.036;6.740;2023-03-26T09:44:58;12.07;;;2.60;;
57832;SDS011;43667;53.036;6.740;2023-03-26T09:52:43;17.50;;;2.72;;
57832;SDS011;43667;53.036;6.740;2023-03-26T09:55:22;14.73;;;2.88;;
57832;SDS011;43667;53.036;6.740;2023-03-26T09:58:17;17.98;;;3.63;;
57832;SDS011;43667;53.036;6.740;2023-03-26T10:00:59;18.40;;;3.67;;
57832;SDS011;43667;53.036;6.740;2023-03-26T10:06:13;13.90;;;2.53;;
57832;SDS011;43667;53.036;6.740;2023-03-26T10:09:06;12.75;;;2.35;;
57832;SDS011;43667;53.036;6.740;2023-03-26T10:14:44;17.77;;;2.58;;
57832;SDS011;43667;53.036;6.740;2023-03-26T10:36:45;16.30;;;2.30;;
57832;SDS011;43667;53.036;6.740;2023-03-26T10:39:33;17.40;;;2.20;;
57832;SDS011;43667;53.036;6.740;2023-03-26T10:45:12;12.52;;;2.40;;
57832;SDS011;43667;53.036;6.740;2023-03-26T10:56:25;25.92;;;3.00;;
57832;SDS011;43667;53.036;6.740;2023-03-26T10:59:11;16.77;;;2.72;;
57832;SDS011;43667;53.036;6.740;2023-03-26T11:07:04;18.63;;;2.88;;
57832;SDS011;43667;53.036;6.740;2023-03-26T11:09:53;17.67;;;3.60;;
57832;SDS011;43667;53.036;6.740;2023-03-26T11:17:57;15.95;;;2.85;;
57832;SDS011;43667;53.036;6.740;2023-03-26T11:26:15;17.27;;;2.65;;
57832;SDS011;43667;53.036;6.740;2023-03-26T11:31:28;14.13;;;2.13;;
57832;SDS011;43667;53.036;6.740;2023-03-26T11:36:25;14.70;;;2.58;;
57832;SDS011;43667;53.036;6.740;2023-03-26T11:38:57;12.95;;;2.58;;
57832;SDS011;43667;53.036;6.740;2023-03-26T11:41:27;14.93;;;2.40;;
57832;SDS011;43667;53.036;6.740;2023-03-26T11:44:15;21.48;;;3.58;;
57832;SDS011;43667;53.036;6.740;2023-03-26T11:46:45;18.00;;;2.70;;
57832;SDS011;43667;53.036;6.740;2023-03-26T11:49:15;20.00;;;3.15;;
57832;SDS011;43667;53.036;6.740;2023-03-26T11:51:45;17.48;;;2.80;;
57832;SDS011;43667;53.036;6.740;2023-03-26T11:54:12;13.13;;;3.03;;
57832;SDS011;43667;53.036;6.740;2023-03-26T11:56:46;13.38;;;2.40;;
57832;SDS011;43667;53.036;6.740;2023-03-26T12:01:55;14.98;;;2.22;;
57832;SDS011;43667;53.036;6.740;2023-03-26T12:04:26;10.50;;;2.47;;
57832;SDS011;43667;53.036;6.740;2023-03-26T12:07:13;16.77;;;2.67;;
57832;SDS011;43667;53.036;6.740;2023-03-26T12:12:28;19.27;;;2.47;;
57832;SDS011;43667;53.036;6.740;2023-03-26T12:15:15;13.10;;;2.10;;
57832;SDS011;43667;53.036;6.740;2023-03-26T12:17:43;19.80;;;2.80;;
57832;SDS011;43667;53.036;6.740;2023-03-26T12:22:51;11.52;;;2.08;;
57832;SDS011;43667;53.036;6.740;2023-03-26T12:25:28;13.18;;;2.08;;
57832;SDS011;43667;53.036;6.740;2023-03-26T12:27:58;11.43;;;2.10;;
57832;SDS011;43667;53.036;6.740;2023-03-26T12:30:30;10.88;;;2.20;;
57832;SDS011;43667;53.036;6.740;2023-03-26T12:32:59;13.13;;;2.08;;
57832;SDS011;43667;53.036;6.740;2023-03-26T12:35:29;14.52;;;1.83;;
57832;SDS011;43667;53.036;6.740;2023-03-26T12:38:13;10.63;;;2.03;;
57832;SDS011;43667;53.036;6.740;2023-03-26T12:41:06;18.17;;;2.72;;
57832;SDS011;43667;53.036;6.740;2023-03-26T12:43:37;14.60;;;1.90;;
57832;SDS011;43667;53.036;6.740;2023-03-26T12:46:26;11.63;;;2.22;;
57832;SDS011;43667;53.036;6.740;2023-03-26T12:49:00;10.30;;;2.10;;
57832;SDS011;43667;53.036;6.740;2023-03-26T12:59:48;13.48;;;2.05;;
57832;SDS011;43667;53.036;6.740;2023-03-26T13:05:29;24.70;;;2.72;;
57832;SDS011;43667;53.036;6.740;2023-03-26T13:13:52;12.38;;;1.65;;
57832;SDS011;43667;53.036;6.740;2023-03-26T13:16:44;10.35;;;1.98;;
57832;SDS011;43667;53.036;6.740;2023-03-26T13:22:45;15.25;;;2.30;;
57832;SDS011;43667;53.036;6.740;2023-03-26T13:25:25;8.63;;;1.70;;
57832;SDS011;43667;53.036;6.740;2023-03-26T13:28:01;14.85;;;2.55;;
57832;SDS011;43667;53.036;6.740;2023-03-26T13:30:35;15.32;;;2.05;;
57832;SDS011;43667;53.036;6.740;2023-03-26T13:44:04;13.05;;;2.10;;
57832;SDS011;43667;53.036;6.740;2023-03-26T13:46:58;16.80;;;1.83;;
57832;SDS011;43667;53.036;6.740;2023-03-26T13:51:52;10.50;;;1.45;;
57832;SDS011;43667;53.036;6.740;2023-03-26T13:54:28;10.02;;;2.95;;
57832;SDS011;43667;53.036;6.740;2023-03-26T13:57:39;11.27;;;1.67;;
57832;SDS011;43667;53.036;6.740;2023-03-26T14:00:00;16.42;;;2.17;;
57832;SDS011;43667;53.036;6.740;2023-03-26T14:02:44;9.60;;;1.83;;
57832;SDS011;43667;53.036;6.740;2023-03-26T14:07:50;12.23;;;2.10;;
57832;SDS011;43667;53.036;6.740;2023-03-26T14:10:23;13.77;;;1.90;;
57832;SDS011;43667;53.036;6.740;2023-03-26T14:15:54;8.98;;;1.70;;
57832;SDS011;43667;53.036;6.740;2023-03-26T14:18:43;9.88;;;2.17;;
57832;SDS011;43667;53.036;6.740;2023-03-26T14:21:40;11.43;;;1.88;;
57832;SDS011;43667;53.036;6.740;2023-03-26T14:41:33;10.88;;;1.70;;
57832;SDS011;43667;53.036;6.740;2023-03-26T14:44:16;9.40;;;1.70;;
57832;SDS011;43667;53.036;6.740;2023-03-26T14:47:18;16.10;;;2.17;;
57832;SDS011;43667;53.036;6.740;2023-03-26T14:53:15;10.23;;;1.67;;
57832;SDS011;43667;53.036;6.740;2023-03-26T15:01:24;10.82;;;1.88;;
57832;SDS011;43667;53.036;6.740;2023-03-26T15:09:33;14.90;;;2.40;;
57832;SDS011;43667;53.036;6.740;2023-03-26T15:14:59;13.85;;;2.15;;
57832;SDS011;43667;53.036;6.740;2023-03-26T15:29:02;11.63;;;1.75;;
57832;SDS011;43667;53.036;6.740;2023-03-26T15:32:06;9.95;;;1.27;;
57832;SDS011;43667;53.036;6.740;2023-03-26T15:40:43;13.75;;;1.95;;
57832;SDS011;43667;53.036;6.740;2023-03-26T15:43:25;13.90;;;2.33;;
57832;SDS011;43667;53.036;6.740;2023-03-26T15:46:23;13.55;;;2.10;;
57832;SDS011;43667;53.036;6.740;2023-03-26T15:59:59;12.77;;;1.85;;
57832;SDS011;43667;53.036;6.740;2023-03-26T16:05:44;14.73;;;1.90;;
57832;SDS011;43667;53.036;6.740;2023-03-26T16:08:21;11.05;;;1.60;;
57832;SDS011;43667;53.036;6.740;2023-03-26T16:26:38;13.48;;;2.13;;
57832;SDS011;43667;53.036;6.740;2023-03-26T16:29:13;13.45;;;2.33;;
57832;SDS011;43667;53.036;6.740;2023-03-26T16:31:58;14.93;;;2.00;;
57832;SDS011;43667;53.036;6.740;2023-03-26T16:34:48;17.30;;;2.42;;
57832;SDS011;43667;53.036;6.740;2023-03-26T16:37:34;12.40;;;1.95;;
57832;SDS011;43667;53.036;6.740;2023-03-26T16:45:22;12.45;;;2.05;;
57832;SDS011;43667;53.036;6.740;2023-03-26T16:53:52;14.93;;;2.85;;
57832;SDS011;43667;53.036;6.740;2023-03-26T17:05:09;9.68;;;1.88;;
57832;SDS011;43667;53.036;6.740;2023-03-26T17:11:00;10.50;;;2.10;;
57832;SDS011;43667;53.036;6.740;2023-03-26T17:13:56;11.32;;;1.65;;
57832;SDS011;43667;53.036;6.740;2023-03-26T17:16:39;14.57;;;2.10;;
57832;SDS011;43667;53.036;6.740;2023-03-26T17:35:49;12.88;;;2.85;;
57832;SDS011;43667;53.036;6.740;2023-03-26T17:41:01;13.80;;;2.25;;
57832;SDS011;43667;53.036;6.740;2023-03-26T17:43:38;8.40;;;1.52;;
57832;SDS011;43667;53.036;6.740;2023-03-26T17:46:12;11.98;;;1.70;;
57832;SDS011;43667;53.036;6.740;2023-03-26T17:48:41;17.38;;;2.28;;
57832;SDS011;43667;53.036;6.740;2023-03-26T17:51:33;10.13;;;1.85;;
57832;SDS011;43667;53.036;6.740;2023-03-26T17:54:21;11.75;;;2.00;;
57832;SDS011;43667;53.036;6.740;2023-03-26T17:56:52;16.65;;;2.22;;
57832;SDS011;43667;53.036;6.740;2023-03-26T17:59:20;10.27;;;1.70;;
57832;SDS011;43667;53.036;6.740;2023-03-26T18:01:58;14.55;;;1.70;;
57832;SDS011;43667;53.036;6.740;2023-03-26T18:04:32;14.35;;;1.92;;
57832;SDS011;43667;53.036;6.740;2023-03-26T18:12:22;16.67;;;2.00;;
57832;SDS011;43667;53.036;6.740;2023-03-26T18:14:57;14.90;;;1.98;;
57832;SDS011;43667;53.036;6.740;2023-03-26T18:17:37;6.55;;;1.50;;
57832;SDS011;43667;53.036;6.740;2023-03-26T18:20:17;12.02;;;1.48;;
57832;SDS011;43667;53.036;6.740;2023-03-26T18:22:51;11.23;;;2.00;;
57832;SDS011;43667;53.036;6.740;2023-03-26T18:27:51;13.65;;;2.03;;
57832;SDS011;43667;53.036;6.740;2023-03-26T18:30:18;11.10;;;1.92;;
57832;SDS011;43667;53.036;6.740;2023-03-26T18:33:03;17.38;;;1.90;;
57832;SDS011;43667;53.036;6.740;2023-03-26T18:35:40;12.68;;;2.05;;
57832;SDS011;43667;53.036;6.740;2023-03-26T18:38:18;12.88;;;2.33;;
57832;SDS011;43667;53.036;6.740;2023-03-26T18:40:47;14.27;;;2.28;;
57832;SDS011;43667;53.036;6.740;2023-03-26T18:43:18;13.90;;;1.90;;
57832;SDS011;43667;53.036;6.740;2023-03-26T18:45:49;8.60;;;1.90;;
57832;SDS011;43667;53.036;6.740;2023-03-26T18:50:44;13.43;;;2.20;;
57832;SDS011;43667;53.036;6.740;2023-03-26T18:53:19;10.85;;;1.40;;
57832;SDS011;43667;53.036;6.740;2023-03-26T18:55:48;9.60;;;1.35;;
57832;SDS011;43667;53.036;6.740;2023-03-26T18:58:20;11.68;;;1.65;;
57832;SDS011;43667;53.036;6.740;2023-03-26T19:00:58;16.00;;;2.33;;
57832;SDS011;43667;53.036;6.740;2023-03-26T19:03:27;11.65;;;1.60;;
57832;SDS011;43667;53.036;6.740;2023-03-26T19:05:59;16.90;;;1.77;;
57832;SDS011;43667;53.036;6.740;2023-03-26T19:08:26;12.45;;;1.98;;
57832;SDS011;43667;53.036;6.740;2023-03-26T19:10:54;15.88;;;2.05;;
57832;SDS011;43667;53.036;6.740;2023-03-26T19:13:20;15.77;;;1.83;;
57832;SDS011;43667;53.036;6.740;2023-03-26T19:15:46;10.25;;;1.60;;
57832;SDS011;43667;53.036;6.740;2023-03-26T19:18:18;12.90;;;1.50;;
57832;SDS011;43667;53.036;6.740;2023-03-26T19:20:48;14.38;;;2.33;;
57832;SDS011;43667;53.036;6.740;2023-03-26T19:23:18;6.20;;;1.20;;
57832;SDS011;43667;53.036;6.740;2023-03-26T19:28:35;15.63;;;2.13;;
57832;SDS011;43667;53.036;6.740;2023-03-26T19:33:55;11.05;;;2.38;;
57832;SDS011;43667;53.036;6.740;2023-03-26T19:36:27;13.55;;;1.50;;
57832;SDS011;43667;53.036;6.740;2023-03-26T19:41:32;9.77;;;1.77;;
57832;SDS011;43667;53.036;6.740;2023-03-26T19:44:00;9.60;;;1.90;;
57832;SDS011;43667;53.036;6.740;2023-03-26T19:46:33;9.52;;;1.70;;
57832;SDS011;43667;53.036;6.740;2023-03-26T19:48:59;14.07;;;2.38;;
57832;SDS011;43667;53.036;6.740;2023-03-26T19:51:34;15.57;;;2.58;;
57832;SDS011;43667;53.036;6.740;2023-03-26T19:54:13;8.18;;;1.88;;
57832;SDS011;43667;53.036;6.740;2023-03-26T19:56:40;14.40;;;1.73;;
57832;SDS011;43667;53.036;6.740;2023-03-26T19:59:07;12.57;;;1.65;;
57832;SDS011;43667;53.036;6.740;2023-03-26T20:01:33;10.68;;;2.75;;
57832;SDS011;43667;53.036;6.740;2023-03-26T20:03:59;9.55;;;1.55;;
57832;SDS011;43667;53.036;6.740;2023-03-26T20:06:28;11.70;;;1.52;;
57832;SDS011;43667;53.036;6.740;2023-03-26T20:08:54;14.55;;;2.78;;
57832;SDS011;43667;53.036;6.740;2023-03-26T20:11:24;13.25;;;1.77;;
57832;SDS011;43667;53.036;6.740;2023-03-26T20:13:57;8.90;;;1.52;;
57832;SDS011;43667;53.036;6.740;2023-03-26T20:16:27;9.73;;;1.58;;
57832;SDS011;43667;53.036;6.740;2023-03-26T20:18:56;12.43;;;2.20;;
57832;SDS011;43667;53.036;6.740;2023-03-26T20:21:29;13.85;;;2.65;;
57832;SDS011;43667;53.036;6.740;2023-03-26T20:23:59;12.13;;;1.95;;
57832;SDS011;43667;53.036;6.740;2023-03-26T20:26:24;10.77;;;1.33;;
57832;SDS011;43667;53.036;6.740;2023-03-26T20:28:50;11.35;;;2.78;;
57832;SDS011;43667;53.036;6.740;2023-03-26T20:31:17;14.23;;;1.65;;
57832;SDS011;43667;53.036;6.740;2023-03-26T20:33:53;11.75;;;1.77;;
57832;SDS011;43667;53.036;6.740;2023-03-26T20:36:20;10.10;;;1.73;;
57832;SDS011;43667;53.036;6.740;2023-03-26T20:38:46;10.88;;;1.50;;
57832;SDS011;43667;53.036;6.740;2023-03-26T20:41:13;10.80;;;1.83;;
57832;SDS011;43667;53.036;6.740;2023-03-26T20:43:38;9.55;;;1.90;;
57832;SDS011;43667;53.036;6.740;2023-03-26T20:46:04;15.80;;;2.22;;
57832;SDS011;43667;53.036;6.740;2023-03-26T20:48:30;11.52;;;1.83;;
57832;SDS011;43667;53.036;6.740;2023-03-26T20:50:56;6.93;;;1.30;;